Time;durP1;ratioP1;P1;durP2;ratioP2;P2;SDS_P1;SDS_P2;PMS_P1;PMS_P2;Temp;Humidity;BMP_temperature;BMP_pressure;BME280_temperature;BME280_humidity;BME280_pressure;Samples;Min_cycle;Max_cycle;Signal;HPM_P1;HPM_P2
2022/05/14 00:05:05;;;;;;;6.15;2.28;;;11.70;99.90;;;;;;10426915;28;20225;-86
2022/05/14 00:10:31;;;;;;;7.27;2.33;;;11.60;99.90;;;;;;10426901;28;20280;-86
2022/05/14 00:15:53;;;;;;;4.00;2.30;;;11.60;99.90;;;;;;10425465;28;20215;-86
2022/05/14 00:21:15;;;;;;;9.03;2.50;;;11.50;99.90;;;;;;10425816;28;20232;-86
2022/05/14 00:26:38;;;;;;;3.58;2.47;;;11.50;99.90;;;;;;10426031;28;20227;-86
2022/05/14 00:32:00;;;;;;;3.60;2.17;;;11.50;99.90;;;;;;10411716;28;20251;-86
2022/05/14 00:37:21;;;;;;;3.90;2.30;;;11.60;99.90;;;;;;10411939;28;20273;-86
2022/05/14 00:42:43;;;;;;;4.00;2.20;;;11.60;99.90;;;;;;10424882;28;20195;-86
2022/05/14 00:48:10;;;;;;;8.73;2.25;;;11.60;99.90;;;;;;10406253;28;20221;-86
2022/05/14 00:53:37;;;;;;;6.93;2.20;;;11.60;99.90;;;;;;10424918;28;20199;-86
2022/05/14 00:59:13;;;;;;;3.85;2.08;;;11.50;99.90;;;;;;10438827;28;20199;-86
2022/05/14 01:04:40;;;;;;;3.83;2.20;;;11.60;99.90;;;;;;10411000;28;20189;-86
2022/05/14 01:10:04;;;;;;;6.47;2.47;;;11.60;99.90;;;;;;10424592;28;20390;-85
2022/05/14 01:15:40;;;;;;;4.60;1.98;;;11.60;99.90;;;;;;10401322;28;20518;-86
2022/05/14 01:21:17;;;;;;;8.47;2.23;;;11.70;99.90;;;;;;10438381;28;20235;-85
2022/05/14 01:26:40;;;;;;;6.85;2.20;;;11.60;99.90;;;;;;10423926;28;20254;-86
2022/05/14 01:32:07;;;;;;;5.88;2.20;;;11.60;99.90;;;;;;10423661;28;20236;-85
2022/05/14 01:37:28;;;;;;;6.97;2.35;;;11.60;99.90;;;;;;10422051;28;20200;-86
2022/05/14 01:42:50;;;;;;;5.13;2.00;;;11.60;99.90;;;;;;10421491;28;20494;-86
2022/05/14 01:48:11;;;;;;;6.13;2.78;;;11.60;99.90;;;;;;10422051;28;20295;-86
2022/05/14 01:53:32;;;;;;;5.73;2.37;;;11.60;99.90;;;;;;10394835;28;20864;-85
2022/05/14 01:58:55;;;;;;;4.70;2.37;;;11.60;99.90;;;;;;10409532;28;20216;-86
2022/05/14 02:04:18;;;;;;;3.63;2.30;;;11.50;99.90;;;;;;10421467;28;20537;-85
2022/05/14 02:09:40;;;;;;;4.03;2.40;;;11.60;99.90;;;;;;10429229;28;20264;-84
2022/05/14 02:15:02;;;;;;;4.80;2.30;;;11.60;99.90;;;;;;10410784;28;20218;-85
2022/05/14 02:20:25;;;;;;;5.03;2.17;;;11.50;99.90;;;;;;10429218;28;20200;-86
2022/05/14 02:25:47;;;;;;;7.07;2.70;;;11.50;99.90;;;;;;10428765;28;20223;-85
2022/05/14 02:31:09;;;;;;;3.80;2.20;;;11.50;99.90;;;;;;10413977;28;20204;-85
2022/05/14 02:36:41;;;;;;;4.93;2.53;;;11.50;99.90;;;;;;10516645;28;20716;-86
2022/05/14 02:42:03;;;;;;;7.17;2.60;;;11.50;99.90;;;;;;10500828;28;20555;-86
2022/05/14 02:47:24;;;;;;;5.87;2.40;;;11.40;99.90;;;;;;10495222;28;20190;-85
2022/05/14 02:52:46;;;;;;;8.60;2.70;;;11.40;99.90;;;;;;10528131;28;20218;-85
2022/05/14 02:58:10;;;;;;;7.23;2.67;;;11.30;99.90;;;;;;10547106;28;20217;-85
2022/05/14 03:03:32;;;;;;;6.57;2.27;;;11.20;99.90;;;;;;10526311;28;20229;-85
2022/05/14 03:08:56;;;;;;;6.20;2.67;;;11.10;99.90;;;;;;10485975;28;20248;-85
2022/05/14 03:14:18;;;;;;;6.53;2.40;;;11.10;99.90;;;;;;10484603;28;20249;-84
2022/05/14 03:19:39;;;;;;;4.83;2.27;;;11.00;99.90;;;;;;10498957;28;20206;-84
2022/05/14 03:25:01;;;;;;;6.13;2.80;;;10.90;99.90;;;;;;10498377;28;20577;-85
2022/05/14 03:30:23;;;;;;;3.87;2.00;;;10.90;99.90;;;;;;10484756;28;20198;-85
2022/05/14 03:35:44;;;;;;;7.13;2.20;;;11.00;99.90;;;;;;10498135;28;20267;-85
2022/05/14 03:41:07;;;;;;;7.47;2.30;;;11.10;99.90;;;;;;10498251;28;20244;-85
2022/05/14 03:46:28;;;;;;;7.60;2.67;;;11.10;99.90;;;;;;10480250;28;20188;-85
2022/05/14 03:51:50;;;;;;;5.10;2.07;;;11.20;99.90;;;;;;10511938;28;20520;-85
2022/05/14 03:57:13;;;;;;;5.73;2.23;;;11.10;99.90;;;;;;10525409;28;20237;-86
2022/05/14 04:02:35;;;;;;;5.63;2.60;;;11.20;99.90;;;;;;10487068;28;20214;-85
2022/05/14 04:07:57;;;;;;;4.00;2.15;;;11.20;99.90;;;;;;10470558;28;20200;-85
2022/05/14 04:13:18;;;;;;;8.57;2.97;;;11.10;99.90;;;;;;10464942;28;20239;-86
2022/05/14 04:18:41;;;;;;;7.60;2.57;;;11.10;99.90;;;;;;10469803;28;20271;-86
2022/05/14 04:24:03;;;;;;;8.00;2.40;;;11.20;99.90;;;;;;10455439;28;20450;-85
2022/05/14 04:29:25;;;;;;;8.80;2.37;;;11.30;99.90;;;;;;10455752;28;20218;-87
2022/05/14 04:34:48;;;;;;;7.63;2.57;;;11.30;99.90;;;;;;10454970;28;20239;-84
2022/05/14 04:40:10;;;;;;;6.43;2.67;;;11.40;97.50;;;;;;10468240;28;20197;-85
2022/05/14 04:45:32;;;;;;;5.87;2.30;;;11.40;93.30;;;;;;10482799;28;20219;-85
2022/05/14 04:50:54;;;;;;;6.63;2.23;;;11.40;94.10;;;;;;10505332;28;20195;-85
2022/05/14 04:56:16;;;;;;;6.87;2.50;;;11.30;81.50;;;;;;10508045;28;20222;-85
2022/05/14 05:01:38;;;;;;;12.27;3.37;;;11.40;88.90;;;;;;10504821;28;20235;-86
2022/05/14 05:07:00;;;;;;;9.27;2.40;;;11.40;68.70;;;;;;10467376;28;20313;-84
2022/05/14 05:12:23;;;;;;;9.50;2.70;;;11.50;85.40;;;;;;10470348;28;20260;-85
2022/05/14 05:17:47;;;;;;;5.27;2.20;;;11.60;58.40;;;;;;10429039;28;20205;-85
2022/05/14 05:23:13;;;;;;;5.07;2.15;;;11.70;43.50;;;;;;10425182;28;20226;-87
2022/05/14 05:28:34;;;;;;;12.30;2.90;;;11.80;47.10;;;;;;10425875;28;20205;-86
2022/05/14 05:33:56;;;;;;;9.57;2.88;;;12.00;30.40;;;;;;10448414;28;20232;-86
2022/05/14 05:39:18;;;;;;;9.90;2.88;;;12.30;1.00;;;;;;10465797;28;20195;-85
2022/05/14 05:44:39;;;;;;;8.00;2.88;;;12.40;1.00;;;;;;10451438;28;20490;-85
2022/05/14 05:50:01;;;;;;;14.32;3.30;;;12.40;1.00;;;;;;10494450;28;20282;-85
2022/05/14 06:01:02;;;;;;;13.07;3.10;;;12.60;1.00;;;;;;10518971;28;20187;-85
2022/05/14 06:06:24;;;;;;;8.05;2.55;;;12.50;1.00;;;;;;10439647;28;20489;-86
2022/05/14 06:11:46;;;;;;;7.35;2.60;;;12.60;1.00;;;;;;10438978;28;20280;-85
2022/05/14 06:17:07;;;;;;;7.57;2.73;;;12.70;1.00;;;;;;10453939;28;20207;-85
2022/05/14 06:22:29;;;;;;;20.67;4.00;;;12.80;1.00;;;;;;10477789;28;20393;-85
2022/05/14 06:27:52;;;;;;;12.73;3.78;;;12.80;1.00;;;;;;10463833;28;20196;-85
2022/05/14 06:33:14;;;;;;;15.07;3.60;;;12.70;1.00;;;;;;10463372;28;20239;-85
2022/05/14 06:38:36;;;;;;;12.68;3.35;;;12.90;1.00;;;;;;10463626;28;20197;-85
2022/05/14 06:43:58;;;;;;;11.07;3.10;;;13.00;1.00;;;;;;10436216;28;20193;-85
2022/05/14 06:49:19;;;;;;;9.63;3.38;;;12.90;1.00;;;;;;10422182;28;20206;-86
2022/05/14 06:54:45;;;;;;;17.02;4.00;;;12.80;1.00;;;;;;10408450;28;20481;-86
2022/05/14 07:00:07;;;;;;;11.07;2.83;;;12.80;1.00;;;;;;10435818;28;20248;-85
2022/05/14 07:11:10;;;;;;;15.70;4.03;;;12.80;1.00;;;;;;10463059;28;20204;-85
2022/05/14 07:16:32;;;;;;;8.23;3.13;;;12.90;1.00;;;;;;10462975;28;20221;-85
2022/05/14 07:21:55;;;;;;;14.90;3.60;;;12.90;26.10;;;;;;10482285;28;20203;-87
2022/05/14 07:27:17;;;;;;;11.53;2.87;;;12.60;86.80;;;;;;10485111;28;20222;-85
2022/05/14 07:32:39;;;;;;;16.63;3.95;;;12.50;95.10;;;;;;10456095;28;20315;-85
2022/05/14 07:38:03;;;;;;;15.73;4.23;;;12.50;71.00;;;;;;10457272;28;20209;-86
2022/05/14 07:43:30;;;;;;;14.85;3.58;;;12.40;99.90;;;;;;10470165;28;20410;-87
2022/05/14 07:48:56;;;;;;;12.40;3.83;;;12.50;95.30;;;;;;10493885;28;20199;-87
2022/05/14 07:54:18;;;;;;;16.95;3.45;;;12.60;99.90;;;;;;10499709;28;20223;-86
2022/05/14 07:59:39;;;;;;;14.65;3.65;;;12.60;99.90;;;;;;10511944;28;20190;-86
2022/05/14 08:05:08;;;;;;;10.75;3.10;;;12.80;95.20;;;;;;10505083;28;20199;-87
2022/05/14 08:10:29;;;;;;;14.30;3.78;;;12.90;97.60;;;;;;10469740;28;20271;-87
2022/05/14 08:15:52;;;;;;;10.17;3.43;;;12.90;99.90;;;;;;10464211;28;20305;-87
2022/05/14 08:26:53;;;;;;;15.13;4.32;;;12.70;99.90;;;;;;10468463;28;20468;-87
2022/05/14 08:32:20;;;;;;;12.57;3.90;;;12.60;99.90;;;;;;10453920;28;20550;-86
2022/05/14 08:37:44;;;;;;;13.75;3.90;;;12.50;99.90;;;;;;10468446;28;20195;-85
2022/05/14 08:43:19;;;;;;;14.13;4.45;;;12.60;99.90;;;;;;10454319;28;20219;-87
2022/05/14 08:48:40;;;;;;;14.97;4.27;;;12.60;99.90;;;;;;10487019;28;20275;-87
2022/05/14 08:54:03;;;;;;;14.45;4.60;;;12.60;99.90;;;;;;10509355;28;20468;-87
2022/05/14 08:59:59;;;;;;;14.45;3.80;;;12.70;99.90;;;;;;10508914;28;20281;-87
2022/05/14 09:05:27;;;;;;;15.15;4.00;;;12.90;99.90;;;;;;10429213;28;20204;-86
2022/05/14 09:11:37;;;;;;;16.65;4.50;;;13.10;70.70;;;;;;10448363;28;20386;-86
2022/05/14 09:17:21;;;;;;;18.55;4.85;;;13.90;43.30;;;;;;10470777;28;20228;-87
2022/05/14 09:22:47;;;;;;;16.48;4.07;;;14.80;1.00;;;;;;10466704;28;20194;-86
2022/05/14 09:28:12;;;;;;;13.00;4.40;;;14.80;1.00;;;;;;10465876;28;20209;-86
2022/05/14 09:33:42;;;;;;;10.85;3.88;;;14.70;1.00;;;;;;10466394;28;20287;-87
2022/05/14 09:39:19;;;;;;;9.38;3.17;;;15.20;1.00;;;;;;10467628;28;20427;-87
2022/05/14 09:44:48;;;;;;;15.02;3.58;;;15.40;1.00;;;;;;10437420;28;20366;-87
2022/05/14 09:50:24;;;;;;;11.98;3.40;;;15.30;1.00;;;;;;10485776;28;20388;-87
2022/05/14 09:56:34;;;;;;;7.47;2.83;;;15.10;1.00;;;;;;10506315;28;20251;-87
2022/05/14 10:02:02;;;;;;;9.98;3.45;;;14.90;1.00;;;;;;10473337;28;20269;-87
2022/05/14 10:07:35;;;;;;;12.50;3.13;;;14.80;1.00;;;;;;10451353;28;20227;-86
2022/05/14 10:13:17;;;;;;;8.40;2.65;;;14.70;1.00;;;;;;10467399;28;20221;-87
2022/05/14 10:19:03;;;;;;;9.93;3.35;;;14.60;1.00;;;;;;10381407;28;20296;-87
2022/05/14 10:30:44;;;;;;;12.60;3.08;;;15.10;1.00;;;;;;10400486;28;20285;-86
2022/05/14 10:36:20;;;;;;;9.80;3.10;;;15.20;1.00;;;;;;10377692;28;20305;-86
2022/05/14 10:41:46;;;;;;;9.77;3.28;;;16.00;1.00;;;;;;10363134;28;20243;-86
2022/05/14 10:47:10;;;;;;;9.57;2.90;;;16.60;1.00;;;;;;10390375;28;20199;-85
2022/05/14 10:52:32;;;;;;;16.33;3.15;;;17.80;16.80;;;;;;10453304;28;20497;-86
2022/05/14 10:58:01;;;;;;;13.27;3.47;;;17.70;99.90;;;;;;10498229;28;20212;-86
2022/05/14 11:03:27;;;;;;;10.35;3.58;;;17.00;1.00;;;;;;10467100;28;20486;-87
2022/05/14 11:08:50;;;;;;;9.45;2.85;;;16.40;10.70;;;;;;10472703;28;20248;-87
2022/05/14 11:14:12;;;;;;;10.63;2.83;;;17.00;1.00;;;;;;10467771;28;20251;-86
2022/05/14 11:19:34;;;;;;;10.38;3.10;;;17.50;1.00;;;;;;10472028;28;20567;-87
2022/05/14 11:24:56;;;;;;;9.88;3.08;;;17.60;99.90;;;;;;10471925;28;20218;-86
2022/05/14 11:30:36;;;;;;;12.38;3.33;;;17.90;1.00;;;;;;10478468;28;20194;-86
2022/05/14 11:36:11;;;;;;;8.43;2.63;;;17.50;1.00;;;;;;10513814;28;20230;-86
2022/05/14 11:41:35;;;;;;;9.52;2.40;;;17.00;1.00;;;;;;10512358;28;20205;-86
2022/05/14 11:46:58;;;;;;;9.98;2.70;;;16.80;92.00;;;;;;10512451;28;20249;-86
2022/05/14 11:52:31;;;;;;;13.68;3.20;;;16.60;99.90;;;;;;10512709;28;20203;-86
2022/05/14 11:58:16;;;;;;;11.63;2.92;;;16.50;99.90;;;;;;10512615;28;20215;-86
2022/05/14 12:03:45;;;;;;;8.20;2.28;;;16.70;1.00;;;;;;10475368;28;20186;-86
2022/05/14 12:09:35;;;;;;;9.90;2.45;;;17.00;1.00;;;;;;10483865;28;20203;-86
2022/05/14 12:15:04;;;;;;;9.82;2.72;;;17.70;99.90;;;;;;10451875;28;20538;-86
2022/05/14 12:20:30;;;;;;;7.20;2.10;;;17.60;1.00;;;;;;10428617;28;20275;-87
2022/05/14 12:25:52;;;;;;;9.50;2.33;;;17.80;1.00;;;;;;10475905;28;20194;-86
2022/05/14 12:36:54;;;;;;;8.95;2.20;;;17.00;1.00;;;;;;10472518;28;20260;-86
2022/05/14 12:42:22;;;;;;;8.20;2.15;;;17.10;99.90;;;;;;10454873;28;20218;-86
2022/05/14 12:47:48;;;;;;;10.55;2.45;;;17.40;1.00;;;;;;10466528;28;20425;-86
2022/05/14 12:53:11;;;;;;;15.50;2.55;;;17.50;1.00;;;;;;10495510;28;20205;-86
2022/05/14 12:58:36;;;;;;;6.85;1.92;;;17.20;99.90;;;;;;10496066;28;20202;-86
2022/05/14 13:04:05;;;;;;;8.43;2.25;;;16.80;1.00;;;;;;10467936;28;20428;-86
2022/05/14 13:09:28;;;;;;;7.55;2.22;;;16.60;1.00;;;;;;10454074;28;20281;-86
2022/05/14 13:15:03;;;;;;;11.82;2.30;;;17.00;1.00;;;;;;10454070;28;20215;-86
2022/05/14 13:20:26;;;;;;;10.68;1.70;;;17.40;99.90;;;;;;10466491;28;20246;-86
2022/05/14 13:26:06;;;;;;;11.77;1.75;;;17.70;1.00;;;;;;10467429;28;20206;-86
2022/05/14 13:31:27;;;;;;;8.27;1.67;;;17.80;46.70;;;;;;10467333;28;20205;-86
2022/05/14 13:37:16;;;;;;;10.25;2.78;;;18.20;1.00;;;;;;10481233;28;20219;-86
2022/05/14 13:42:49;;;;;;;12.48;2.28;;;18.20;1.00;;;;;;10480953;28;20190;-86
2022/05/14 13:48:20;;;;;;;10.10;2.40;;;17.70;1.00;;;;;;10466787;28;20425;-86
2022/05/14 13:53:41;;;;;;;9.65;2.30;;;17.70;1.00;;;;;;10507451;28;20222;-86
2022/05/14 13:59:20;;;;;;;13.93;2.40;;;17.40;1.00;;;;;;10518271;28;20199;-85
2022/05/14 14:04:42;;;;;;;6.85;2.15;;;17.00;1.00;;;;;;10451168;28;20207;-85
2022/05/14 14:10:18;;;;;;;10.85;2.13;;;16.90;1.00;;;;;;10450927;28;20202;-85
2022/05/14 14:15:40;;;;;;;9.00;2.03;;;16.90;1.00;;;;;;10466923;28;20241;-85
2022/05/14 14:21:06;;;;;;;10.50;2.45;;;16.90;1.00;;;;;;10441604;28;20313;-86
2022/05/14 14:26:28;;;;;;;10.38;1.75;;;16.90;1.00;;;;;;10457100;28;20198;-85
2022/05/14 14:31:50;;;;;;;9.32;2.38;;;16.70;1.00;;;;;;10469959;28;20511;-85
2022/05/14 14:37:11;;;;;;;7.22;1.58;;;16.70;1.00;;;;;;10483091;28;20242;-85
2022/05/14 14:42:33;;;;;;;6.63;1.75;;;16.50;1.00;;;;;;10484039;28;20219;-85
2022/05/14 14:47:55;;;;;;;11.50;2.83;;;16.30;50.80;;;;;;10481999;28;20190;-85
2022/05/14 14:53:16;;;;;;;8.85;2.20;;;16.30;99.90;;;;;;10493982;28;20202;-84
2022/05/14 14:58:37;;;;;;;11.65;3.13;;;16.40;1.00;;;;;;10518455;28;20241;-85
2022/05/14 15:04:13;;;;;;;8.30;2.28;;;16.60;1.00;;;;;;10504676;28;20201;-85
2022/05/14 15:09:35;;;;;;;8.15;2.45;;;16.80;1.00;;;;;;10504552;28;20244;-85
2022/05/14 15:14:56;;;;;;;10.18;2.65;;;16.70;1.00;;;;;;10479440;28;20324;-85
2022/05/14 15:20:18;;;;;;;9.27;2.22;;;16.60;1.00;;;;;;10462650;28;20209;-85
2022/05/14 15:25:39;;;;;;;6.68;2.20;;;16.50;1.00;;;;;;10476635;28;20214;-86
2022/05/14 15:31:07;;;;;;;10.57;2.72;;;16.30;99.90;;;;;;10448789;28;20200;-85
2022/05/14 15:36:28;;;;;;;25.05;2.85;;;16.20;1.00;;;;;;10462397;28;20253;-85
2022/05/14 15:41:56;;;;;;;7.57;2.53;;;16.10;1.00;;;;;;10452142;28;20369;-85
2022/05/14 15:47:22;;;;;;;16.08;2.58;;;16.20;1.00;;;;;;10462681;28;20377;-84
2022/05/14 15:52:45;;;;;;;6.80;2.53;;;16.20;99.90;;;;;;10497268;28;20221;-85
2022/05/14 15:58:08;;;;;;;11.50;2.38;;;16.20;99.90;;;;;;10477974;28;20222;-86
2022/05/14 16:03:30;;;;;;;7.22;2.17;;;16.10;99.90;;;;;;10455670;28;20199;-85
2022/05/14 16:08:52;;;;;;;12.85;2.55;;;16.00;99.90;;;;;;10455406;28;20301;-85
2022/05/14 16:19:55;;;;;;;10.57;3.03;;;15.80;1.00;;;;;;10441311;28;20214;-85
2022/05/14 16:25:17;;;;;;;12.25;2.65;;;15.70;1.00;;;;;;10437326;28;20185;-85
2022/05/14 16:30:39;;;;;;;11.52;2.70;;;15.50;1.00;;;;;;10454280;28;20229;-86
2022/05/14 16:36:01;;;;;;;12.52;2.42;;;15.40;99.90;;;;;;10469185;28;20494;-86
2022/05/14 16:41:23;;;;;;;12.10;3.55;;;15.30;99.90;;;;;;10470347;28;20196;-86
2022/05/14 16:46:45;;;;;;;13.48;2.65;;;15.30;99.90;;;;;;10472562;28;20201;-86
2022/05/14 16:52:06;;;;;;;12.07;3.15;;;15.30;1.00;;;;;;10513586;28;20461;-86
2022/05/14 16:57:28;;;;;;;14.07;4.28;;;15.20;1.00;;;;;;10490063;28;20227;-87
2022/05/14 17:02:50;;;;;;;10.75;2.22;;;15.00;1.00;;;;;;10470973;28;20193;-87
2022/05/14 17:08:14;;;;;;;9.85;2.85;;;14.90;1.00;;;;;;10469490;28;20190;-86
2022/05/14 17:13:36;;;;;;;14.57;3.72;;;14.80;29.40;;;;;;10460640;28;20211;-86
2022/05/14 17:19:00;;;;;;;10.07;2.20;;;14.70;99.90;;;;;;10467772;28;20220;-86
2022/05/14 17:24:23;;;;;;;10.35;2.65;;;14.60;1.00;;;;;;10454610;28;20551;-86
2022/05/14 17:29:44;;;;;;;11.07;3.30;;;14.50;78.40;;;;;;10468022;28;20285;-86
2022/05/14 17:35:07;;;;;;;11.45;3.20;;;14.40;99.90;;;;;;10467634;28;20288;-86
2022/05/14 17:40:29;;;;;;;9.43;2.78;;;14.40;99.90;;;;;;10467294;28;20195;-86
2022/05/14 17:45:50;;;;;;;13.02;3.35;;;14.40;99.90;;;;;;10466754;28;20195;-85
2022/05/14 17:51:13;;;;;;;7.82;2.63;;;14.30;99.90;;;;;;10506262;28;20506;-86
2022/05/14 17:56:34;;;;;;;11.63;3.25;;;14.30;1.00;;;;;;10507625;28;20393;-86
2022/05/14 18:01:56;;;;;;;12.35;3.35;;;14.20;1.00;;;;;;10522688;28;20392;-86
2022/05/14 18:07:20;;;;;;;8.63;2.45;;;14.10;1.00;;;;;;10508397;28;20193;-85
2022/05/14 18:12:41;;;;;;;8.05;2.70;;;14.10;1.00;;;;;;10501489;28;20271;-86
2022/05/14 18:18:03;;;;;;;5.95;1.75;;;14.00;99.90;;;;;;10442669;28;20229;-86
2022/05/14 18:23:25;;;;;;;7.90;2.17;;;13.80;99.90;;;;;;10466011;28;20198;-86
2022/05/14 18:28:49;;;;;;;13.10;2.60;;;13.70;1.00;;;;;;10451813;28;20203;-87
2022/05/14 18:34:17;;;;;;;6.90;2.00;;;13.60;1.00;;;;;;10465929;28;20257;-85
2022/05/14 18:39:41;;;;;;;5.90;2.47;;;13.50;1.00;;;;;;10462907;28;20566;-86
2022/05/14 18:45:04;;;;;;;4.47;1.60;;;13.30;99.90;;;;;;10465695;28;20199;-86
2022/05/14 18:50:26;;;;;;;6.72;1.90;;;13.20;99.90;;;;;;10513172;28;20201;-86
2022/05/14 18:55:50;;;;;;;9.07;1.92;;;13.10;99.90;;;;;;10492923;28;20226;-86
2022/05/14 19:01:11;;;;;;;5.63;1.70;;;13.00;99.90;;;;;;10507404;28;20236;-86
2022/05/14 19:12:13;;;;;;;5.28;1.88;;;12.80;99.90;;;;;;10468430;28;20506;-86
2022/05/14 19:17:38;;;;;;;3.15;1.17;;;12.70;1.00;;;;;;10471172;28;20234;-86
2022/05/14 19:23:01;;;;;;;5.55;1.58;;;12.50;1.00;;;;;;10459456;28;20237;-85
2022/05/14 19:28:24;;;;;;;5.50;1.92;;;12.50;1.00;;;;;;10473141;28;20366;-86
2022/05/14 19:33:45;;;;;;;3.75;2.08;;;12.40;1.00;;;;;;10473190;28;20301;-85
2022/05/14 19:39:06;;;;;;;4.25;1.40;;;12.30;1.00;;;;;;10458751;28;20203;-85
2022/05/14 19:44:35;;;;;;;9.95;2.55;;;12.30;1.00;;;;;;10472541;28;20381;-86
2022/05/14 19:49:57;;;;;;;10.57;2.03;;;12.20;1.00;;;;;;10501033;28;20198;-86
2022/05/14 19:55:19;;;;;;;6.87;2.10;;;12.10;1.00;;;;;;10512912;28;20300;-85
2022/05/14 20:00:42;;;;;;;6.22;2.22;;;12.00;1.00;;;;;;10517047;28;20205;-85
2022/05/14 20:06:06;;;;;;;7.50;2.70;;;12.00;1.00;;;;;;10527177;28;20396;-85
2022/05/14 20:11:28;;;;;;;7.00;2.47;;;12.00;1.00;;;;;;10443033;28;20192;-87
2022/05/14 20:22:31;;;;;;;5.50;2.40;;;11.80;1.00;;;;;;10496439;28;20188;-86
2022/05/14 20:27:54;;;;;;;4.95;2.13;;;11.80;1.00;;;;;;10479893;28;20198;-86
2022/05/14 20:33:17;;;;;;;4.83;2.13;;;11.70;1.00;;;;;;10479092;28;20229;-86
2022/05/14 20:38:38;;;;;;;9.83;2.33;;;11.70;1.00;;;;;;10469891;28;20302;-86
2022/05/14 20:43:59;;;;;;;9.30;2.53;;;11.60;1.00;;;;;;10470255;28;20205;-86
2022/05/14 20:49:21;;;;;;;7.37;1.90;;;11.60;1.00;;;;;;10493669;28;20198;-86
2022/05/14 20:54:43;;;;;;;7.03;2.13;;;11.50;1.00;;;;;;10511012;28;20219;-86
2022/05/14 21:00:07;;;;;;;6.97;2.00;;;11.50;1.00;;;;;;10496635;28;20448;-86
2022/05/14 21:05:31;;;;;;;9.03;2.43;;;11.40;1.00;;;;;;10496948;28;20198;-85
2022/05/14 21:10:53;;;;;;;7.23;2.30;;;11.40;1.00;;;;;;10428116;28;20386;-86
2022/05/14 21:16:14;;;;;;;6.40;1.93;;;11.40;1.00;;;;;;10447118;28;20252;-86
2022/05/14 21:21:35;;;;;;;6.40;1.83;;;11.30;1.00;;;;;;10453947;28;20209;-86
2022/05/14 21:26:57;;;;;;;5.10;1.80;;;11.20;1.00;;;;;;10468170;28;20275;-86
2022/05/14 21:32:18;;;;;;;12.70;2.57;;;11.20;1.00;;;;;;10467745;28;20245;-86
2022/05/14 21:37:41;;;;;;;8.03;2.00;;;11.10;1.00;;;;;;10470973;28;20233;-86
2022/05/14 21:43:07;;;;;;;10.37;2.10;;;11.00;1.00;;;;;;10511293;28;20229;-86
2022/05/14 21:48:29;;;;;;;4.27;1.73;;;10.90;1.00;;;;;;10514587;28;20198;-85
2022/05/14 21:53:50;;;;;;;5.53;1.90;;;10.90;1.00;;;;;;10494114;28;20194;-86
2022/05/14 21:59:13;;;;;;;7.70;2.03;;;10.80;1.00;;;;;;10508608;28;20225;-86
2022/05/14 22:04:38;;;;;;;5.67;1.70;;;10.80;1.00;;;;;;10494074;28;20472;-85
2022/05/14 22:09:59;;;;;;;9.93;2.57;;;10.70;1.00;;;;;;10483886;28;20195;-84
2022/05/14 22:15:22;;;;;;;11.10;2.27;;;10.70;1.00;;;;;;10472065;28;20225;-84
2022/05/14 22:20:44;;;;;;;7.47;2.13;;;10.70;1.00;;;;;;10464905;28;20425;-84
2022/05/14 22:26:05;;;;;;;8.47;2.37;;;10.60;1.00;;;;;;10464598;28;20506;-85
2022/05/14 22:31:27;;;;;;;5.30;1.97;;;10.50;1.00;;;;;;10464273;28;20217;-85
2022/05/14 22:36:49;;;;;;;9.67;2.10;;;10.50;1.00;;;;;;10449850;28;20426;-85
2022/05/14 22:42:10;;;;;;;5.20;1.90;;;10.50;1.00;;;;;;10463859;28;20559;-84
2022/05/14 22:47:33;;;;;;;7.33;1.63;;;10.50;1.00;;;;;;10473338;28;20198;-84
2022/05/14 22:52:55;;;;;;;7.17;1.90;;;10.40;1.00;;;;;;10499557;28;20202;-84
2022/05/14 22:58:22;;;;;;;6.67;2.10;;;10.30;1.00;;;;;;10528841;28;20212;-84
2022/05/14 23:03:44;;;;;;;11.70;2.23;;;10.30;1.00;;;;;;10513369;28;20224;-85
2022/05/14 23:09:07;;;;;;;6.93;1.90;;;10.40;7.40;;;;;;10467144;28;20195;-84
2022/05/14 23:14:30;;;;;;;7.53;2.50;;;10.20;4.70;;;;;;10470712;28;20484;-84
2022/05/14 23:19:51;;;;;;;9.97;1.83;;;10.20;1.00;;;;;;10471120;28;20371;-84
2022/05/14 23:25:16;;;;;;;5.23;1.70;;;10.10;6.50;;;;;;10471242;28;20273;-84
2022/05/14 23:30:40;;;;;;;5.33;1.83;;;10.10;2.20;;;;;;10457633;28;20594;-85
2022/05/14 23:41:42;;;;;;;10.80;2.00;;;10.00;3.60;;;;;;10470367;28;20198;-84
2022/05/14 23:47:05;;;;;;;8.47;2.00;;;9.90;7.20;;;;;;10475522;28;20194;-85
2022/05/14 23:52:27;;;;;;;5.60;1.80;;;9.90;11.10;;;;;;10511371;28;20205;-85
